Decoded Metar for OING (GORGAN in IRAN) (IATA:N/A) | Meteo·Mobile Aviation Weather
aviador You're here:

OING Decoded Metar

GORGAN in IRAN
Report Time2018-09-24 18:00:00
UTC Time2018-09-24 19:01:25
Flight Rules vfr VFR
Wind180° at 06 kt
W.Decomp.*RWY 13: 4.1 kt HW 4.4 kt RCW
W.Rank180° ranks 15
Current wind is below 180° avg. (6.1)
Visibility9999 m
Phenomena:N/A
Clouds:Few CB 030 Hf
Scattered 100 Hf
Expected CloudBase > 800 ft AGL from Temp-Dew spread
CeilingNone
Temp19°C (ISA +5)
Dew Point17°C (88% RH)
QNH1019 hPa
Density Alt1,155 ft
Elevation509 ft
Report Wrong Elevation
Raw Report
METAR OING 241800Z 18006KT 9999 FEW030CB SCT100 19/17 Q1019=

Extra information for OING:More info

Metar Taf Metar & Taf Last 4 Metars F.Rules Stats Wind Profile Meteogram Temp Stats Airport Information Weather charts Add Link Nearby VenuesMetar ALERT Operation Metar Decoded Social comments